createdAt,value
2019-04-21T00:02:53.669Z,15.60
2019-04-21T00:06:18.627Z,15.50
2019-04-21T00:09:26.053Z,15.20
2019-04-21T00:12:29.920Z,14.90
2019-04-21T00:15:24.359Z,14.70
2019-04-21T00:18:53.750Z,15.00
2019-04-21T00:21:53.444Z,15.30
2019-04-21T00:25:07.678Z,15.50
2019-04-21T00:28:16.903Z,15.60
2019-04-21T00:31:19.303Z,15.30
2019-04-21T00:34:09.091Z,15.10
2019-04-21T00:37:25.968Z,15.00
2019-04-21T00:40:41.716Z,14.90
2019-04-21T00:43:38.940Z,15.20
2019-04-21T00:46:40.323Z,14.90
2019-04-21T00:49:53.950Z,14.90
2019-04-21T00:53:05.657Z,14.90
2019-04-21T00:56:15.260Z,14.70
2019-04-21T00:59:19.541Z,14.40
2019-04-21T01:02:26.457Z,14.70
2019-04-21T01:05:31.316Z,14.70
2019-04-21T01:08:31.152Z,14.70
2019-04-21T01:11:36.725Z,14.60
2019-04-21T01:14:49.988Z,14.70
2019-04-21T01:17:46.466Z,14.70
2019-04-21T01:20:32.351Z,14.60
2019-04-21T01:23:35.846Z,14.70
2019-04-21T01:26:49.460Z,14.40
2019-04-21T01:30:08.528Z,14.00
2019-04-21T01:33:15.344Z,14.30
2019-04-21T01:36:14.573Z,14.60
2019-04-21T01:39:40.724Z,14.60
2019-04-21T01:42:45.758Z,14.50
2019-04-21T01:45:50.532Z,14.30
2019-04-21T01:48:49.420Z,14.00
2019-04-21T01:52:08.896Z,14.20
2019-04-21T01:55:18.444Z,14.30
2019-04-21T01:58:19.371Z,14.40
2019-04-21T02:01:28.597Z,14.40
2019-04-21T02:04:36.459Z,14.10
2019-04-21T02:07:40.299Z,13.80
2019-04-21T02:10:47.712Z,13.60
2019-04-21T02:13:53.380Z,13.80
2019-04-21T02:16:55.665Z,13.60
2019-04-21T02:19:51.419Z,13.80
2019-04-21T02:26:10.124Z,13.70
2019-04-21T02:29:16.607Z,14.00
2019-04-21T02:32:26.205Z,14.10
2019-04-21T02:50:50.054Z,14.10
2019-04-21T02:54:37.368Z,14.10
2019-04-21T03:03:36.647Z,13.80
2019-04-21T03:07:03.775Z,13.60
2019-04-21T03:13:08.482Z,13.90
2019-04-21T03:19:17.631Z,13.70
2019-04-21T03:28:29.682Z,13.70
2019-04-21T03:41:05.137Z,13.30
2019-04-21T03:44:04.163Z,13.20
2019-04-21T03:47:08.335Z,13.30
2019-04-21T03:50:27.772Z,13.30
2019-04-21T03:53:10.917Z,13.30
2019-04-21T03:56:14.808Z,13.40
2019-04-21T03:59:16.136Z,13.40
2019-04-21T04:02:52.333Z,13.10
2019-04-21T04:09:41.805Z,13.00
2019-04-21T04:12:40.847Z,13.00
2019-04-21T04:15:46.465Z,12.80
2019-04-21T04:18:52.692Z,12.90
2019-04-21T04:28:10.261Z,12.90
2019-04-21T04:31:15.229Z,12.90
2019-04-21T04:34:24.486Z,12.70
2019-04-21T04:37:38.805Z,12.90
2019-04-21T04:40:34.627Z,12.70
2019-04-21T04:43:37.112Z,12.80
2019-04-21T04:46:51.107Z,12.90
2019-04-21T04:52:45.761Z,12.80
2019-04-21T04:56:02.203Z,12.60
2019-04-21T05:02:26.509Z,12.80
2019-04-21T05:08:34.450Z,12.60
2019-04-21T05:11:41.657Z,12.50
2019-04-21T05:14:25.131Z,12.60
2019-04-21T05:20:37.043Z,12.70
2019-04-21T05:23:34.074Z,12.90
2019-04-21T05:26:31.168Z,12.90
2019-04-21T05:29:53.827Z,12.80
2019-04-21T05:33:27.521Z,12.90
2019-04-21T05:36:44.810Z,13.10
2019-04-21T05:39:53.595Z,13.10
2019-04-21T05:42:54.886Z,13.20
2019-04-21T05:46:09.895Z,13.20
2019-04-21T05:49:34.083Z,13.20
2019-04-21T05:52:53.605Z,13.20
2019-04-21T05:56:04.891Z,13.20
2019-04-21T05:59:02.103Z,13.10
2019-04-21T06:02:18.430Z,13.20
2019-04-21T06:08:23.489Z,13.30
2019-04-21T06:11:30.353Z,13.40
2019-04-21T06:14:37.266Z,13.40
2019-04-21T06:20:40.734Z,13.40
2019-04-21T06:23:45.642Z,13.50
2019-04-21T06:27:08.209Z,13.60
2019-04-21T06:30:15.240Z,13.60
2019-04-21T06:33:11.732Z,13.70
2019-04-21T06:36:49.559Z,13.80
2019-04-21T06:40:07.651Z,13.80
2019-04-21T06:43:10.969Z,13.90
2019-04-21T06:46:15.263Z,13.90
2019-04-21T06:49:06.743Z,13.90
2019-04-21T06:52:30.487Z,13.90
2019-04-21T06:55:20.126Z,14.00
2019-04-21T06:58:22.432Z,14.10
2019-04-21T07:01:32.810Z,14.20
2019-04-21T07:04:36.482Z,14.20
2019-04-21T07:07:40.588Z,14.30
2019-04-21T07:10:46.430Z,14.30
2019-04-21T07:13:51.686Z,15.90
2019-04-21T07:16:58.130Z,15.50
2019-04-21T07:20:02.449Z,15.30
2019-04-21T07:23:05.549Z,15.20
2019-04-21T07:26:12.312Z,15.10
2019-04-21T07:29:14.222Z,15.20
2019-04-21T07:32:18.375Z,15.30
2019-04-21T07:35:25.337Z,15.50
2019-04-21T07:38:29.811Z,15.60
2019-04-21T07:41:25.081Z,15.80
2019-04-21T07:44:32.916Z,16.00
2019-04-21T07:47:59.262Z,16.20
2019-04-21T07:51:27.860Z,16.30
2019-04-21T07:54:44.801Z,16.50
2019-04-21T07:57:24.378Z,16.60
2019-04-21T08:04:24.274Z,16.80
2019-04-21T08:06:47.515Z,16.90
2019-04-21T08:09:51.141Z,16.90
2019-04-21T08:12:54.304Z,17.00
2019-04-21T08:16:04.660Z,17.20
2019-04-21T08:19:08.567Z,17.30
2019-04-21T08:22:20.527Z,17.30
2019-04-21T08:25:21.995Z,17.30
2019-04-21T08:28:27.649Z,17.50
2019-04-21T08:31:32.702Z,17.60
2019-04-21T08:34:35.832Z,17.50
2019-04-21T08:37:36.993Z,17.60
2019-04-21T08:40:42.429Z,17.70
2019-04-21T08:43:51.994Z,17.70
2019-04-21T08:50:00.965Z,17.90
2019-04-21T08:53:22.190Z,17.90
2019-04-21T08:56:34.283Z,18.00
2019-04-21T09:00:01.625Z,18.10
2019-04-21T09:03:24.175Z,18.20
2019-04-21T09:06:23.564Z,18.30
2019-04-21T09:09:23.661Z,18.60
2019-04-21T09:12:31.016Z,18.70
2019-04-21T09:15:30.940Z,18.70
2019-04-21T09:18:26.989Z,18.80
2019-04-21T09:21:48.579Z,19.00
2019-04-21T09:24:46.914Z,19.60
2019-04-21T09:27:46.771Z,19.90
2019-04-21T09:30:42.251Z,19.90
2019-04-21T09:33:48.778Z,19.90
2019-04-21T09:36:52.122Z,19.90
2019-04-21T09:39:57.016Z,20.00
2019-04-21T09:43:04.158Z,20.10
2019-04-21T09:46:03.985Z,20.20
2019-04-21T09:49:12.157Z,20.30
2019-04-21T09:52:18.510Z,20.50
2019-04-21T09:55:21.530Z,20.50
2019-04-21T09:58:31.134Z,20.60
2019-04-21T10:01:38.934Z,20.70
2019-04-21T10:04:33.667Z,20.80
2019-04-21T10:07:41.940Z,20.90
2019-04-21T10:10:42.462Z,21.00
2019-04-21T10:13:46.327Z,21.20
2019-04-21T10:16:59.969Z,21.30
2019-04-21T10:20:05.141Z,21.40
2019-04-21T10:23:09.241Z,21.30
2019-04-21T10:26:12.698Z,21.50
2019-04-21T10:29:22.659Z,21.70
2019-04-21T10:32:23.462Z,21.80
2019-04-21T10:35:26.302Z,21.80
2019-04-21T10:38:36.798Z,21.80
2019-04-21T10:41:35.359Z,22.00
2019-04-21T10:44:52.631Z,22.00
2019-04-21T10:47:56.895Z,22.10
2019-04-21T10:51:01.016Z,22.20
2019-04-21T10:54:06.160Z,22.40
2019-04-21T10:57:14.770Z,22.40
2019-04-21T11:00:18.834Z,22.50
2019-04-21T11:03:48.782Z,22.60
2019-04-21T11:06:52.741Z,22.60
2019-04-21T11:09:58.032Z,22.60
2019-04-21T11:13:01.036Z,22.90
2019-04-21T11:16:05.383Z,22.90
2019-04-21T11:19:09.534Z,23.10
2019-04-21T11:22:12.826Z,23.20
2019-04-21T11:25:16.097Z,23.40
2019-04-21T11:28:19.128Z,23.40
2019-04-21T11:31:22.953Z,23.20
2019-04-21T11:34:27.199Z,23.30
2019-04-21T11:37:32.383Z,23.40
2019-04-21T11:40:36.074Z,23.40
2019-04-21T11:43:39.277Z,23.60
2019-04-21T11:46:42.937Z,23.60
2019-04-21T11:49:47.199Z,23.60
2019-04-21T11:52:50.544Z,23.60
2019-04-21T11:55:55.166Z,23.60
2019-04-21T11:58:59.657Z,23.90
2019-04-21T12:02:03.559Z,23.80
2019-04-21T12:05:07.572Z,24.00
2019-04-21T12:08:21.238Z,24.10
2019-04-21T12:11:15.860Z,24.20
2019-04-21T12:14:19.890Z,24.30
2019-04-21T12:17:23.735Z,24.20
2019-04-21T12:20:26.861Z,24.30
2019-04-21T12:23:30.346Z,24.40
2019-04-21T12:26:33.849Z,24.50
2019-04-21T12:29:37.808Z,24.60
2019-04-21T12:33:02.253Z,24.50
2019-04-21T12:36:06.486Z,24.50
2019-04-21T12:39:10.682Z,24.60
2019-04-21T12:42:14.514Z,24.70
2019-04-21T12:45:19.283Z,24.90
2019-04-21T12:48:23.830Z,25.10
2019-04-21T12:51:28.036Z,25.30
2019-04-21T12:54:31.487Z,25.20
2019-04-21T12:57:35.113Z,25.20
2019-04-21T13:00:38.898Z,25.40
2019-04-21T13:03:43.758Z,25.30
2019-04-21T13:06:47.857Z,25.30
2019-04-21T13:09:50.772Z,25.50
2019-04-21T13:12:54.311Z,25.60
2019-04-21T13:15:57.695Z,25.70
2019-04-21T13:19:00.769Z,25.60
2019-04-21T13:22:04.028Z,25.60
2019-04-21T13:25:09.737Z,25.60
2019-04-21T13:28:12.805Z,25.60
2019-04-21T13:31:16.165Z,25.60
2019-04-21T13:34:20.025Z,25.60
2019-04-21T13:37:23.679Z,25.50
2019-04-21T13:40:57.254Z,25.70
2019-04-21T13:43:45.495Z,25.70
2019-04-21T13:46:49.145Z,25.90
2019-04-21T13:49:56.052Z,25.90
2019-04-21T13:52:58.731Z,25.90
2019-04-21T13:56:02.643Z,25.80
2019-04-21T13:59:06.531Z,25.90
2019-04-21T14:02:11.023Z,26.00
2019-04-21T14:05:15.786Z,26.00
2019-04-21T14:08:18.996Z,26.10
2019-04-21T14:11:23.098Z,26.30
2019-04-21T14:14:28.362Z,26.40
2019-04-21T14:17:32.852Z,26.40
2019-04-21T14:20:35.842Z,26.70
2019-04-21T14:23:44.526Z,26.50
2019-04-21T14:26:44.564Z,26.40
2019-04-21T14:29:47.622Z,26.60
2019-04-21T14:32:51.998Z,26.60
2019-04-21T14:35:56.863Z,26.60
2019-04-21T14:39:00.699Z,26.70
2019-04-21T14:42:04.399Z,26.70
2019-04-21T14:45:10.173Z,26.60
2019-04-21T14:48:32.573Z,26.40
2019-04-21T14:51:49.297Z,26.50
2019-04-21T14:55:04.873Z,26.70
2019-04-21T14:58:09.429Z,26.50
2019-04-21T15:01:13.638Z,26.60
2019-04-21T15:04:17.626Z,26.60
2019-04-21T15:07:21.485Z,26.20
2019-04-21T15:10:28.607Z,26.10
2019-04-21T15:13:30.219Z,26.40
2019-04-21T15:16:33.277Z,26.70
2019-04-21T15:19:36.487Z,26.60
2019-04-21T15:22:39.771Z,26.80
2019-04-21T15:25:43.947Z,26.80
2019-04-21T15:28:47.010Z,27.10
2019-04-21T15:31:50.624Z,26.80
2019-04-21T15:34:54.107Z,26.90
2019-04-21T15:37:58.017Z,26.90
2019-04-21T15:41:04.556Z,26.80
2019-04-21T15:44:07.854Z,26.30
2019-04-21T15:47:11.799Z,25.90
2019-04-21T15:50:17.749Z,25.70
2019-04-21T15:53:21.705Z,25.70
2019-04-21T15:56:44.780Z,25.40
2019-04-21T15:59:55.007Z,25.20
2019-04-21T16:02:58.352Z,24.90
2019-04-21T16:06:01.743Z,24.70
2019-04-21T16:09:14.184Z,24.50
2019-04-21T16:12:13.739Z,24.40
2019-04-21T16:15:16.961Z,24.30
2019-04-21T16:18:20.541Z,24.10
2019-04-21T16:21:24.198Z,23.90
2019-04-21T16:24:27.549Z,23.70
2019-04-21T16:27:31.091Z,23.70
2019-04-21T16:30:34.329Z,23.70
2019-04-21T16:33:38.925Z,23.70
2019-04-21T16:36:41.944Z,23.70
2019-04-21T16:39:45.407Z,23.70
2019-04-21T16:42:50.002Z,23.70
2019-04-21T16:45:53.126Z,23.50
2019-04-21T16:48:57.758Z,23.50
2019-04-21T16:52:34.112Z,23.50
2019-04-21T16:55:51.220Z,23.30
2019-04-21T16:59:02.919Z,23.30
2019-04-21T17:02:07.009Z,23.20
2019-04-21T17:05:10.371Z,23.00
2019-04-21T17:08:13.719Z,22.90
2019-04-21T17:11:21.623Z,22.80
2019-04-21T17:14:37.079Z,22.70
2019-04-21T17:17:51.307Z,22.60
2019-04-21T17:20:43.019Z,22.50
2019-04-21T17:23:37.641Z,22.40
2019-04-21T17:26:42.875Z,22.40
2019-04-21T17:29:46.416Z,22.30
2019-04-21T17:32:50.341Z,22.20
2019-04-21T17:35:54.249Z,22.20
2019-04-21T17:38:57.863Z,22.10
2019-04-21T17:42:14.218Z,22.10
2019-04-21T17:45:06.550Z,22.00
2019-04-21T17:48:14.149Z,22.00
2019-04-21T17:51:33.267Z,22.00
2019-04-21T17:54:45.254Z,22.00
2019-04-21T17:58:04.098Z,21.90
2019-04-21T18:04:15.257Z,21.90
2019-04-21T18:07:26.306Z,21.80
2019-04-21T18:10:29.359Z,21.80
2019-04-21T18:13:19.107Z,21.90
2019-04-21T18:16:29.060Z,21.90
2019-04-21T18:19:28.870Z,21.90
2019-04-21T18:22:56.612Z,21.80
2019-04-21T18:26:07.482Z,21.70
2019-04-21T18:29:05.538Z,21.30
2019-04-21T18:32:08.730Z,21.20
2019-04-21T18:35:22.680Z,21.10
2019-04-21T18:38:57.158Z,21.00
2019-04-21T18:42:05.027Z,20.80
2019-04-21T18:48:26.707Z,20.60
2019-04-21T18:51:34.929Z,20.50
2019-04-21T18:54:50.188Z,20.30
2019-04-21T18:57:42.358Z,20.20
2019-04-21T19:00:45.316Z,20.20
2019-04-21T19:03:50.069Z,20.00
2019-04-21T19:07:07.860Z,19.80
2019-04-21T19:10:22.606Z,19.90
2019-04-21T19:13:36.329Z,19.90
2019-04-21T19:22:38.399Z,19.50
2019-04-21T19:25:42.515Z,19.50
2019-04-21T19:28:55.590Z,19.30
2019-04-21T19:31:49.724Z,19.20
2019-04-21T19:34:40.691Z,19.10
2019-04-21T19:37:51.180Z,19.10
2019-04-21T19:41:02.048Z,19.10
2019-04-21T19:44:13.354Z,19.00
2019-04-21T19:47:16.871Z,19.00
2019-04-21T19:50:23.448Z,18.90
2019-04-21T19:53:28.587Z,18.80
2019-04-21T19:56:14.364Z,18.80
2019-04-21T19:59:25.128Z,18.90
2019-04-21T20:02:22.651Z,18.90
2019-04-21T20:05:38.432Z,18.90
2019-04-21T20:08:43.259Z,18.80
2019-04-21T20:11:52.259Z,18.80
2019-04-21T20:15:14.862Z,18.60
2019-04-21T20:17:58.360Z,18.60
2019-04-21T20:20:52.272Z,18.70
2019-04-21T20:23:56.478Z,18.40
2019-04-21T20:27:07.961Z,18.30
2019-04-21T20:36:43.046Z,18.50
2019-04-21T20:39:27.255Z,18.60
2019-04-21T20:42:42.684Z,18.40
2019-04-21T20:45:52.692Z,18.40
2019-04-21T20:48:50.954Z,18.30
2019-04-21T20:52:24.548Z,18.30
2019-04-21T20:55:14.491Z,18.20
2019-04-21T20:58:23.892Z,18.00
2019-04-21T21:01:34.774Z,18.10
2019-04-21T21:04:28.010Z,18.10
2019-04-21T21:07:44.079Z,18.20
2019-04-21T21:10:38.823Z,18.10
2019-04-21T21:13:53.695Z,18.00
2019-04-21T21:16:59.852Z,18.00
2019-04-21T21:19:59.635Z,17.70
2019-04-21T21:23:05.773Z,17.70
2019-04-21T21:26:16.057Z,17.50
2019-04-21T21:29:18.312Z,17.60
2019-04-21T21:32:21.343Z,17.80
2019-04-21T21:35:21.383Z,17.80
2019-04-21T21:38:30.876Z,17.80
2019-04-21T21:41:26.452Z,17.70
2019-04-21T21:44:28.025Z,17.70
2019-04-21T21:47:49.836Z,17.80
2019-04-21T21:50:45.692Z,17.70
2019-04-21T21:53:42.144Z,17.70
2019-04-21T21:56:45.240Z,17.70
2019-04-21T21:59:52.921Z,17.80
2019-04-21T22:02:56.836Z,17.80
2019-04-21T22:06:06.253Z,17.80
2019-04-21T22:09:08.309Z,17.80
2019-04-21T22:12:12.471Z,17.80
2019-04-21T22:15:22.320Z,17.60
2019-04-21T22:18:39.525Z,17.20
2019-04-21T22:21:50.502Z,16.90
2019-04-21T22:24:46.990Z,16.70
2019-04-21T22:27:39.022Z,16.40
2019-04-21T22:30:46.412Z,16.50
2019-04-21T22:33:50.289Z,16.40
2019-04-21T22:37:01.372Z,16.30
2019-04-21T22:40:08.354Z,16.50
2019-04-21T22:43:11.884Z,16.80
2019-04-21T22:46:07.329Z,16.90
2019-04-21T22:49:14.479Z,16.90
2019-04-21T22:52:21.045Z,16.90
2019-04-21T22:55:25.910Z,16.90
2019-04-21T22:58:31.947Z,16.80
2019-04-21T23:01:40.507Z,16.90
2019-04-21T23:04:43.742Z,16.80
2019-04-21T23:07:51.273Z,16.70
2019-04-21T23:10:54.721Z,16.80
2019-04-21T23:14:02.113Z,16.90
2019-04-21T23:17:20.933Z,16.90
2019-04-21T23:20:25.462Z,16.20
2019-04-21T23:23:29.700Z,16.10
2019-04-21T23:26:33.115Z,16.00
2019-04-21T23:29:49.795Z,16.30
2019-04-21T23:32:36.353Z,16.30
2019-04-21T23:35:35.221Z,16.10
2019-04-21T23:38:43.566Z,16.20
2019-04-21T23:41:45.953Z,16.30
2019-04-21T23:44:49.502Z,16.40
2019-04-21T23:48:01.909Z,16.50
2019-04-21T23:51:10.912Z,16.40
2019-04-21T23:54:00.022Z,16.20
2019-04-21T23:57:14.164Z,16.10
